createdAt,value
2024-04-18T00:05:38.408Z,4.53
2024-04-18T00:11:40.058Z,4.48
2024-04-18T00:17:41.842Z,4.39
2024-04-18T00:23:44.487Z,4.34
2024-04-18T00:29:46.239Z,4.27
2024-04-18T00:35:47.891Z,4.20
2024-04-18T00:41:49.542Z,4.13
2024-04-18T00:47:51.298Z,4.08
2024-04-18T00:53:54.174Z,4.02
2024-04-18T00:59:56.230Z,3.99
2024-04-18T01:05:57.911Z,3.97
2024-04-18T01:11:59.547Z,3.95
2024-04-18T01:18:01.297Z,3.92
2024-04-18T01:24:03.248Z,3.90
2024-04-18T01:30:05.461Z,3.85
2024-04-18T01:36:07.517Z,3.80
2024-04-18T01:42:09.106Z,3.74
2024-04-18T01:48:10.922Z,3.68
2024-04-18T01:54:12.626Z,3.63
2024-04-18T02:00:14.497Z,3.57
2024-04-18T02:06:16.565Z,3.54
2024-04-18T02:12:18.229Z,3.50
2024-04-18T02:18:19.895Z,3.49
2024-04-18T02:24:21.715Z,3.47
2024-04-18T02:30:26.768Z,3.44
2024-04-18T02:36:29.203Z,3.40
2024-04-18T02:42:32.015Z,3.35
2024-04-18T02:48:33.759Z,3.31
2024-04-18T02:54:35.445Z,3.28
2024-04-18T03:00:37.591Z,3.26
2024-04-18T03:06:39.385Z,3.25
2024-04-18T03:12:41.196Z,3.24
2024-04-18T03:18:43.847Z,3.22
2024-04-18T03:24:45.563Z,3.23
2024-04-18T03:30:47.211Z,3.21
2024-04-18T03:36:48.990Z,3.22
2024-04-18T03:42:50.703Z,3.24
2024-04-18T03:48:52.587Z,3.24
2024-04-18T03:55:01.403Z,3.30
2024-04-18T04:01:06.151Z,3.34
2024-04-18T04:07:07.814Z,3.39
2024-04-18T04:13:10.212Z,3.44
2024-04-18T04:19:11.915Z,3.51
2024-04-18T04:25:13.990Z,3.58
2024-04-18T04:31:15.763Z,3.66
2024-04-18T04:37:18.042Z,3.74
2024-04-18T04:43:19.650Z,3.80
2024-04-18T04:49:21.559Z,3.87
2024-04-18T04:55:23.255Z,3.92
2024-04-18T05:01:24.937Z,3.97
2024-04-18T05:07:26.928Z,4.05
2024-04-18T05:13:28.546Z,4.11
2024-04-18T05:19:30.135Z,4.18
2024-04-18T05:25:31.783Z,4.25
2024-04-18T05:31:33.486Z,4.34
2024-04-18T05:37:35.093Z,4.43
2024-04-18T05:43:36.715Z,4.53
2024-04-18T05:49:38.265Z,4.65
2024-04-18T05:55:41.467Z,4.75
2024-04-18T06:01:43.328Z,4.85
2024-04-18T06:07:46.580Z,4.98
2024-04-18T06:13:48.550Z,5.10
2024-04-18T06:19:53.412Z,5.21
2024-04-18T06:25:55.012Z,5.33
2024-04-18T06:31:56.626Z,5.42
2024-04-18T06:37:58.262Z,5.55
2024-04-18T06:43:59.943Z,5.80
2024-04-18T06:50:01.628Z,6.12
2024-04-18T06:56:03.704Z,6.47
2024-04-18T07:02:05.376Z,6.79
2024-04-18T07:08:07.433Z,7.12
2024-04-18T07:14:09.357Z,7.47
2024-04-18T07:20:10.988Z,7.81
2024-04-18T07:26:12.681Z,8.12
2024-04-18T07:32:14.244Z,8.50
2024-04-18T07:38:15.936Z,8.85
2024-04-18T07:44:20.049Z,9.17
2024-04-18T07:50:23.198Z,9.50
2024-04-18T07:56:25.439Z,9.83
2024-04-18T08:02:29.478Z,10.16
2024-04-18T08:08:35.130Z,10.40
2024-04-18T08:14:42.163Z,10.69
2024-04-18T08:20:49.497Z,10.95
2024-04-18T08:26:51.149Z,11.33
2024-04-18T08:32:52.829Z,11.64
2024-04-18T08:38:54.482Z,11.76
2024-04-18T08:44:56.655Z,11.78
2024-04-18T08:51:01.823Z,11.86
2024-04-18T08:57:08.336Z,11.89
2024-04-18T09:03:10.244Z,11.88
2024-04-18T09:09:13.371Z,11.88
2024-04-18T09:15:15.152Z,12.12
2024-04-18T09:21:17.096Z,12.59
2024-04-18T09:27:18.810Z,12.67
2024-04-18T09:33:22.175Z,12.51
2024-04-18T09:39:29.202Z,12.57
2024-04-18T09:45:49.121Z,12.74
2024-04-18T09:51:52.075Z,12.73
2024-04-18T09:57:54.733Z,12.59
2024-04-18T10:03:56.801Z,12.64
2024-04-18T10:10:00.559Z,13.04
2024-04-18T10:16:10.701Z,13.59
2024-04-18T10:22:23.521Z,13.82
2024-04-18T10:28:34.089Z,13.72
2024-04-18T10:34:35.907Z,13.37
2024-04-18T10:40:57.553Z,13.39
2024-04-18T10:47:00.127Z,13.67
2024-04-18T10:53:04.388Z,13.78
2024-04-18T10:59:08.578Z,13.64
2024-04-18T11:05:10.191Z,13.64
2024-04-18T11:11:12.190Z,13.79
2024-04-18T11:17:36.895Z,13.85
2024-04-18T11:23:44.209Z,13.80
2024-04-18T11:29:52.002Z,13.63
2024-04-18T11:35:53.868Z,13.52
2024-04-18T11:41:55.492Z,13.63
2024-04-18T11:47:58.200Z,13.98
2024-04-18T11:54:00.042Z,14.25
2024-04-18T12:00:01.845Z,14.26
2024-04-18T12:06:03.760Z,14.15
2024-04-18T12:12:05.775Z,14.03
2024-04-18T12:18:07.627Z,13.95
2024-04-18T12:24:09.695Z,13.84
2024-04-18T12:30:11.792Z,13.85
2024-04-18T12:36:13.639Z,14.19
2024-04-18T12:42:16.271Z,14.53
2024-04-18T12:48:18.164Z,14.88
2024-04-18T12:54:19.933Z,15.00
2024-04-18T13:00:21.672Z,15.21
2024-04-18T13:06:24.394Z,15.26
2024-04-18T13:12:25.993Z,15.43
2024-04-18T13:18:27.865Z,15.59
2024-04-18T13:24:29.520Z,15.74
2024-04-18T13:30:31.262Z,15.84
2024-04-18T13:36:33.011Z,15.70
2024-04-18T13:42:34.738Z,15.59
2024-04-18T13:48:36.784Z,15.38
2024-04-18T13:54:38.550Z,15.20
2024-04-18T14:00:40.224Z,15.09
2024-04-18T14:06:42.063Z,15.06
2024-04-18T14:12:43.791Z,15.03
2024-04-18T14:18:45.410Z,14.99
2024-04-18T14:24:47.131Z,14.96
2024-04-18T14:30:48.783Z,15.00
2024-04-18T14:36:50.423Z,15.04
2024-04-18T14:42:52.530Z,14.98
2024-04-18T14:48:56.256Z,14.95
2024-04-18T14:54:57.916Z,14.89
2024-04-18T15:00:59.540Z,14.85
2024-04-18T15:07:01.207Z,14.76
2024-04-18T15:13:02.852Z,14.68
2024-04-18T15:19:04.516Z,14.63
2024-04-18T15:25:06.844Z,14.63
2024-04-18T15:31:08.440Z,14.56
2024-04-18T15:37:10.056Z,14.51
2024-04-18T15:43:11.663Z,14.41
2024-04-18T15:49:14.621Z,14.27
2024-04-18T15:55:21.743Z,14.15
2024-04-18T16:01:24.829Z,14.06
2024-04-18T16:07:26.560Z,14.10
2024-04-18T16:13:28.202Z,14.14
2024-04-18T16:19:29.757Z,14.12
2024-04-18T16:25:34.183Z,14.06
2024-04-18T16:31:39.048Z,13.97
2024-04-18T16:37:41.143Z,13.86
2024-04-18T16:43:42.874Z,13.76
2024-04-18T16:49:44.536Z,13.65
2024-04-18T16:55:46.365Z,13.51
2024-04-18T17:01:47.981Z,13.36
2024-04-18T17:07:49.668Z,13.13
2024-04-18T17:13:52.844Z,12.83
2024-04-18T17:19:55.600Z,12.53
2024-04-18T17:25:57.289Z,12.30
2024-04-18T17:31:58.926Z,12.08
2024-04-18T17:38:00.817Z,11.86
2024-04-18T17:44:02.939Z,11.57
2024-04-18T17:50:04.917Z,11.30
2024-04-18T17:56:06.803Z,11.03
2024-04-18T18:02:08.612Z,10.81
2024-04-18T18:08:10.326Z,10.68
2024-04-18T18:14:11.936Z,10.57
2024-04-18T18:20:13.608Z,10.47
2024-04-18T18:26:15.484Z,10.38
2024-04-18T18:32:17.744Z,10.31
2024-04-18T18:38:19.365Z,10.25
2024-04-18T18:44:21.032Z,10.21
2024-04-18T18:50:23.266Z,10.18
2024-04-18T18:56:24.941Z,10.14
2024-04-18T19:02:26.674Z,10.09
2024-04-18T19:08:28.410Z,10.02
2024-04-18T19:14:30.075Z,9.95
2024-04-18T19:20:31.688Z,9.87
2024-04-18T19:26:33.276Z,9.78
2024-04-18T19:32:34.992Z,9.71
2024-04-18T19:38:36.617Z,9.62
2024-04-18T19:44:38.512Z,9.54
2024-04-18T19:50:40.149Z,9.45
2024-04-18T19:56:41.966Z,9.37
2024-04-18T20:02:43.689Z,9.29
2024-04-18T20:08:45.857Z,9.21
2024-04-18T20:14:48.142Z,9.11
2024-04-18T20:20:49.786Z,9.02
2024-04-18T20:26:51.380Z,8.92
2024-04-18T20:32:53.119Z,8.82
2024-04-18T20:38:54.714Z,8.72
2024-04-18T20:44:56.403Z,8.66
2024-04-18T20:50:58.009Z,8.63
2024-04-18T20:56:59.659Z,8.62
2024-04-18T21:03:01.334Z,8.60
2024-04-18T21:09:03.119Z,8.59
2024-04-18T21:15:05.273Z,8.56
2024-04-18T21:21:07.015Z,8.54
2024-04-18T21:27:08.798Z,8.50
2024-04-18T21:33:10.699Z,8.47
2024-04-18T21:39:12.599Z,8.44
2024-04-18T21:45:14.332Z,8.40
2024-04-18T21:51:16.092Z,8.37
2024-04-18T21:57:17.846Z,8.34
2024-04-18T22:03:19.718Z,8.30
2024-04-18T22:09:21.605Z,8.26
2024-04-18T22:15:23.327Z,8.22
2024-04-18T22:21:25.109Z,8.17
2024-04-18T22:27:26.846Z,8.12
2024-04-18T22:33:28.785Z,8.06
2024-04-18T22:39:30.556Z,8.03
2024-04-18T22:45:33.176Z,8.01
2024-04-18T22:51:34.972Z,8.00
2024-04-18T22:57:36.699Z,7.97
2024-04-18T23:03:38.836Z,7.95
2024-04-18T23:09:40.620Z,7.92
2024-04-18T23:15:42.410Z,7.89
2024-04-18T23:21:44.291Z,7.86
2024-04-18T23:27:46.380Z,7.82
2024-04-18T23:33:48.063Z,7.76
2024-04-18T23:39:49.847Z,7.71
2024-04-18T23:45:51.643Z,7.65
2024-04-18T23:51:53.365Z,7.58
2024-04-18T23:57:55.051Z,7.54
